Time;durP1;ratioP1;P1;durP2;ratioP2;P2;SDS_P1;SDS_P2;PMS_P1;PMS_P2;Temp;Humidity;BMP_temperature;BMP_pressure;BME280_temperature;BME280_humidity;BME280_pressure;Samples;Min_cycle;Max_cycle;Signal;HPM_P1;HPM_P2
2021/07/05 00:00:05;;;;;;;3.35;1.90;;;;;;;13.91;86.41;93439.84;715156;41;20037;-85
2021/07/05 00:00:36;;;;;;;2.60;1.85;;;;;;;13.97;86.29;93444.06;704755;41;20057;-85
2021/07/05 00:01:07;;;;;;;2.05;1.85;;;;;;;13.97;86.27;93449.28;709066;41;22117;-85
2021/07/05 00:01:38;;;;;;;3.08;2.10;;;;;;;13.92;86.31;93451.91;713441;41;20046;-85
2021/07/05 00:02:09;;;;;;;2.55;1.92;;;;;;;13.95;86.45;93446.16;716521;41;20038;-84
2021/07/05 00:02:40;;;;;;;3.20;2.00;;;;;;;13.94;86.51;93454.25;713842;41;20697;-85
2021/07/05 00:03:11;;;;;;;2.22;2.00;;;;;;;13.95;86.41;93445.38;714546;41;20018;-85
2021/07/05 00:03:41;;;;;;;2.17;1.90;;;;;;;13.95;86.51;93446.16;713996;41;21204;-85
2021/07/05 00:04:12;;;;;;;3.53;1.83;;;;;;;13.98;86.27;93450.84;716217;41;20200;-86
2021/07/05 00:04:43;;;;;;;2.63;1.90;;;;;;;13.97;86.52;93438.84;714388;41;20091;-85
2021/07/05 00:05:14;;;;;;;2.47;2.10;;;;;;;13.95;86.44;93451.38;720643;41;20041;-85
2021/07/05 00:05:45;;;;;;;2.15;1.95;;;;;;;13.93;86.31;93442.22;712416;41;20034;-85
2021/07/05 00:06:16;;;;;;;3.25;2.10;;;;;;;13.90;86.46;93445.38;718834;41;20045;-85
2021/07/05 00:06:48;;;;;;;1.80;1.70;;;;;;;13.92;86.56;93443.28;718218;41;20058;-85
2021/07/05 00:07:20;;;;;;;4.47;1.85;;;;;;;14.00;86.29;93448.78;719903;41;20424;-85
2021/07/05 00:07:50;;;;;;;4.63;1.77;;;;;;;14.00;86.12;93453.19;717888;41;20082;-85
2021/07/05 00:08:21;;;;;;;1.95;1.70;;;;;;;14.02;86.33;93444.03;718112;41;20048;-85
2021/07/05 00:08:52;;;;;;;3.22;1.95;;;;;;;14.07;86.38;93455.56;716633;41;20038;-84
2021/07/05 00:09:22;;;;;;;3.35;1.85;;;;;;;14.02;86.15;93451.88;718603;41;20033;-85
2021/07/05 00:09:53;;;;;;;2.15;1.73;;;;;;;13.97;86.42;93441.44;716803;41;20116;-85
2021/07/05 00:10:26;;;;;;;1.98;1.77;;;;;;;14.05;86.31;93452.41;717730;41;20337;-84
2021/07/05 00:10:58;;;;;;;1.95;1.60;;;;;;;14.05;85.99;93445.34;717689;41;20026;-84
2021/07/05 00:11:28;;;;;;;2.67;1.73;;;;;;;14.09;85.92;93442.97;716642;41;20051;-85
2021/07/05 00:12:00;;;;;;;1.80;1.70;;;;;;;14.18;85.51;93444.03;715344;41;20439;-84
2021/07/05 00:12:31;;;;;;;2.03;1.67;;;;;;;14.19;85.77;93448.22;716735;41;20133;-85
2021/07/05 00:13:03;;;;;;;2.38;2.00;;;;;;;14.18;85.71;93450.06;716107;41;20044;-85
2021/07/05 00:13:33;;;;;;;2.13;1.80;;;;;;;14.10;86.13;93442.75;714760;41;20074;-86
2021/07/05 00:14:04;;;;;;;2.75;1.77;;;;;;;14.08;86.24;93441.44;714110;41;20035;-85
2021/07/05 00:14:35;;;;;;;3.08;1.80;;;;;;;14.17;86.03;93447.69;714666;41;20038;-84
2021/07/05 00:15:07;;;;;;;4.13;2.00;;;;;;;14.20;85.99;93444.53;714832;41;20026;-86
2021/07/05 00:15:37;;;;;;;3.63;1.80;;;;;;;14.17;86.43;93452.91;712850;41;20035;-85
2021/07/05 00:16:08;;;;;;;2.38;2.03;;;;;;;14.13;86.24;93441.44;713621;41;20451;-84
2021/07/05 00:16:38;;;;;;;2.88;1.70;;;;;;;14.08;86.39;93434.34;713480;41;20080;-85
2021/07/05 00:17:09;;;;;;;2.45;1.85;;;;;;;14.01;86.40;93434.63;712821;41;20071;-85
2021/07/05 00:18:03;;;;;;;2.00;1.80;;;;;;;14.14;86.35;93446.38;713610;41;20116;-83
2021/07/05 00:18:34;;;;;;;2.58;1.80;;;;;;;14.09;86.25;93435.13;717423;41;20137;-84
2021/07/05 00:19:06;;;;;;;3.10;2.08;;;;;;;14.17;86.12;93452.91;716723;41;20129;-84
2021/07/05 00:19:36;;;;;;;2.10;1.90;;;;;;;14.05;85.83;93436.72;717844;41;20049;-83
2021/07/05 00:20:08;;;;;;;3.45;1.88;;;;;;;14.18;85.63;93449.28;718771;41;20050;-83
2021/07/05 00:20:42;;;;;;;2.65;1.80;;;;;;;14.18;85.67;93455.28;719665;41;20044;-85
2021/07/05 00:21:13;;;;;;;2.20;1.73;;;;;;;14.19;85.76;93450.84;721361;41;20029;-85
2021/07/05 00:21:44;;;;;;;2.28;1.80;;;;;;;14.25;85.59;93455.78;722915;41;20037;-84
2021/07/05 00:22:14;;;;;;;2.50;1.85;;;;;;;14.29;85.53;93450.84;721713;41;20033;-84
2021/07/05 00:22:46;;;;;;;3.38;1.83;;;;;;;14.28;85.23;93454.47;720083;41;20044;-85
2021/07/05 00:23:17;;;;;;;2.65;2.00;;;;;;;14.27;85.61;93446.91;718895;41;21005;-85
2021/07/05 00:23:48;;;;;;;3.63;1.90;;;;;;;14.29;85.47;93448.22;720296;41;20929;-84
2021/07/05 00:24:32;;;;;;;2.05;1.80;;;;;;;14.28;85.09;93454.47;719055;41;20646;-84
2021/07/05 00:25:04;;;;;;;2.03;1.80;;;;;;;14.29;85.04;93450.84;720538;41;20026;-84
2021/07/05 00:25:36;;;;;;;2.65;1.90;;;;;;;14.33;85.18;93451.84;720980;41;20409;-84
2021/07/05 00:26:09;;;;;;;2.05;1.70;;;;;;;14.35;85.22;93456.81;720741;41;20510;-84
2021/07/05 00:26:39;;;;;;;4.95;2.00;;;;;;;14.35;85.32;93449.78;722722;41;20040;-84
2021/07/05 00:27:10;;;;;;;2.47;1.75;;;;;;;14.29;85.53;93448.22;720364;41;20033;-84
2021/07/05 00:27:41;;;;;;;2.85;1.90;;;;;;;14.33;85.50;93451.84;721294;41;20036;-85
2021/07/05 00:28:12;;;;;;;3.60;1.70;;;;;;;14.34;85.70;93453.41;720918;41;20302;-84
2021/07/05 00:28:42;;;;;;;3.10;1.73;;;;;;;14.27;85.48;93441.69;721998;41;20033;-84
2021/07/05 00:29:13;;;;;;;1.73;1.63;;;;;;;14.28;85.57;93449.25;719819;41;20056;-84
2021/07/05 00:29:44;;;;;;;4.28;1.70;;;;;;;14.34;85.44;93450.81;720364;41;20802;-84
2021/07/05 00:30:16;;;;;;;2.17;1.63;;;;;;;14.32;85.33;93450.31;718510;41;20274;-84
2021/07/05 00:30:47;;;;;;;3.72;2.00;;;;;;;14.31;85.29;93456.56;716462;41;20050;-84
2021/07/05 00:31:17;;;;;;;3.60;1.83;;;;;;;14.29;84.98;93450.84;716078;41;20054;-84
2021/07/05 00:31:47;;;;;;;2.95;1.70;;;;;;;14.28;85.39;93449.25;717154;41;20046;-85
2021/07/05 00:32:18;;;;;;;2.47;1.80;;;;;;;14.27;85.51;93447.69;717400;41;20037;-84
2021/07/05 00:32:50;;;;;;;2.50;2.03;;;;;;;14.23;85.68;93450.06;718051;41;20068;-84
2021/07/05 00:33:21;;;;;;;2.63;1.70;;;;;;;14.24;85.37;93453.44;718898;41;20241;-85
2021/07/05 00:33:52;;;;;;;4.00;1.83;;;;;;;14.25;85.29;93445.31;718832;41;20091;-84
2021/07/05 00:34:23;;;;;;;1.90;1.70;;;;;;;14.30;85.53;93447.16;717951;41;20086;-84
2021/07/05 00:34:55;;;;;;;3.53;2.05;;;;;;;14.29;85.22;93448.22;718030;41;20262;-84
2021/07/05 00:35:26;;;;;;;2.00;1.80;;;;;;;14.36;85.23;93451.31;717679;41;20133;-85
2021/07/05 00:35:56;;;;;;;2.90;1.60;;;;;;;14.35;85.08;93457.63;716120;41;20038;-84
2021/07/05 00:36:27;;;;;;;2.50;1.75;;;;;;;14.33;85.34;93451.84;715480;41;20022;-85
2021/07/05 00:36:57;;;;;;;2.53;1.95;;;;;;;14.35;85.05;93455.00;716031;41;20095;-84
2021/07/05 00:37:28;;;;;;;2.33;1.70;;;;;;;14.35;85.04;93449.78;717407;41;20030;-84
2021/07/05 00:37:59;;;;;;;3.97;2.00;;;;;;;14.31;85.15;93451.34;717953;41;20049;-84
2021/07/05 00:38:31;;;;;;;2.10;1.52;;;;;;;14.34;85.14;93455.25;721028;41;20060;-83
2021/07/05 00:39:03;;;;;;;1.77;1.60;;;;;;;14.31;85.45;93459.19;720233;41;20033;-84
2021/07/05 00:39:33;;;;;;;3.47;2.10;;;;;;;14.20;85.21;93436.69;721290;41;20025;-84
2021/07/05 00:40:06;;;;;;;2.60;1.90;;;;;;;14.13;85.67;93433.59;723003;40;20024;-84
2021/07/05 00:40:37;;;;;;;2.15;1.95;;;;;;;14.28;85.40;93449.25;723121;41;20031;-85
2021/07/05 00:41:08;;;;;;;2.28;1.70;;;;;;;14.36;85.45;93458.41;722593;40;20052;-85
2021/07/05 00:41:39;;;;;;;2.00;1.80;;;;;;;14.33;85.58;93458.94;723124;41;20027;-84
2021/07/05 00:42:09;;;;;;;1.77;1.63;;;;;;;14.32;85.14;93454.72;722190;40;20107;-84
2021/07/05 00:42:40;;;;;;;3.53;1.80;;;;;;;14.36;85.18;93461.78;721344;41;20150;-84
2021/07/05 00:43:11;;;;;;;3.03;1.70;;;;;;;14.30;85.44;93454.22;719421;41;20096;-84
2021/07/05 00:43:42;;;;;;;2.63;2.08;;;;;;;14.33;85.73;93459.72;717100;41;20053;-84
2021/07/05 00:44:13;;;;;;;2.10;1.75;;;;;;;14.22;85.53;93442.47;707329;41;20410;-85
2021/07/05 00:44:43;;;;;;;2.03;1.80;;;;;;;14.35;85.59;93452.38;719521;41;20037;-84
2021/07/05 00:45:16;;;;;;;2.70;2.10;;;;;;;14.29;85.94;93450.84;718193;41;20123;-85
2021/07/05 00:45:46;;;;;;;2.65;1.95;;;;;;;14.30;85.78;93456.84;719483;41;20161;-84
2021/07/05 00:46:17;;;;;;;2.30;2.00;;;;;;;14.30;85.77;93455.00;717483;41;20087;-85
2021/07/05 00:46:47;;;;;;;2.05;1.85;;;;;;;14.29;85.73;93466.53;717123;41;20093;-83
2021/07/05 00:47:18;;;;;;;2.40;1.83;;;;;;;14.32;85.67;93454.72;718295;41;20137;-85
2021/07/05 00:47:49;;;;;;;2.42;2.08;;;;;;;14.33;85.60;93466.78;719498;41;20033;-84
2021/07/05 00:48:19;;;;;;;2.10;1.90;;;;;;;14.25;85.77;93463.63;718221;41;20293;-84
2021/07/05 00:48:50;;;;;;;2.00;1.73;;;;;;;14.27;85.88;93460.00;721319;41;20025;-85
2021/07/05 00:49:20;;;;;;;4.13;1.90;;;;;;;14.24;85.81;93461.28;720541;41;20036;-84
2021/07/05 00:49:53;;;;;;;2.55;1.98;;;;;;;14.23;85.73;93452.66;719066;41;20032;-84
2021/07/05 00:50:27;;;;;;;2.33;2.10;;;;;;;14.28;85.82;93458.94;718833;41;20085;-84
2021/07/05 00:50:57;;;;;;;2.97;1.80;;;;;;;14.33;86.08;93459.72;719330;41;20077;-84
2021/07/05 00:51:29;;;;;;;2.10;1.90;;;;;;;14.27;85.91;93449.53;718869;41;20062;-85
2021/07/05 00:52:00;;;;;;;2.28;2.08;;;;;;;14.36;86.18;93463.63;720818;41;20056;-85
2021/07/05 00:52:33;;;;;;;3.03;2.00;;;;;;;14.34;86.04;93458.66;720091;41;20041;-85
2021/07/05 00:53:04;;;;;;;2.30;2.10;;;;;;;14.33;86.17;93462.31;720225;41;20040;-85
2021/07/05 00:53:35;;;;;;;2.35;1.90;;;;;;;14.29;86.14;93460.50;721015;41;20032;-84
2021/07/05 00:54:05;;;;;;;4.55;1.88;;;;;;;14.28;86.18;93457.09;720630;41;20061;-85
2021/07/05 00:54:37;;;;;;;3.45;2.10;;;;;;;14.28;86.04;93464.94;721365;41;20416;-85
2021/07/05 00:55:10;;;;;;;3.22;2.28;;;;;;;14.33;86.16;93462.31;720392;41;20036;-83
2021/07/05 00:55:41;;;;;;;3.03;2.15;;;;;;;14.25;85.61;93457.63;721866;41;20096;-85
2021/07/05 00:56:12;;;;;;;2.22;1.88;;;;;;;14.25;85.94;93453.16;717587;41;20128;-88
2021/07/05 00:56:43;;;;;;;4.85;2.20;;;;;;;14.25;85.68;93461.03;719444;41;20073;-83
2021/07/05 00:57:27;;;;;;;3.97;2.10;;;;;;;14.25;85.92;93455.00;716263;41;20038;-83
2021/07/05 00:57:59;;;;;;;2.50;1.90;;;;;;;14.30;85.86;93462.84;716901;41;20368;-85
2021/07/05 00:58:30;;;;;;;2.85;2.42;;;;;;;14.30;85.87;93457.63;716011;41;20127;-84
2021/07/05 00:59:01;;;;;;;2.50;2.25;;;;;;;14.34;85.66;93463.09;716454;41;20038;-84
2021/07/05 00:59:32;;;;;;;2.10;1.90;;;;;;;14.35;86.03;93464.66;719122;41;20186;-83
2021/07/05 01:00:08;;;;;;;2.30;1.92;;;;;;;14.29;86.20;93457.88;717972;41;20077;-85
2021/07/05 01:00:39;;;;;;;2.83;2.38;;;;;;;14.24;86.40;93471.75;719534;41;20025;-84
2021/07/05 01:01:09;;;;;;;2.78;2.13;;;;;;;14.23;86.54;93463.13;718464;41;20041;-84
2021/07/05 01:01:40;;;;;;;3.08;2.17;;;;;;;14.27;86.36;93467.84;719110;41;20033;-83
2021/07/05 01:02:10;;;;;;;3.13;2.15;;;;;;;14.29;86.13;93461.28;718725;41;20038;-85
2021/07/05 01:02:43;;;;;;;2.88;2.05;;;;;;;14.31;86.27;93467.03;717570;41;20045;-84
2021/07/05 01:03:14;;;;;;;3.35;2.25;;;;;;;14.31;86.26;93464.41;717537;41;20048;-85
2021/07/05 01:03:45;;;;;;;3.42;2.38;;;;;;;14.27;86.28;93466.00;721975;40;20052;-85
2021/07/05 01:04:16;;;;;;;3.67;2.40;;;;;;;14.27;86.40;93457.38;724325;40;20536;-84
2021/07/05 01:04:47;;;;;;;2.90;2.33;;;;;;;14.30;86.33;93465.47;725299;40;20032;-85
2021/07/05 01:05:19;;;;;;;4.38;2.15;;;;;;;14.31;86.36;93453.94;725631;40;20122;-84
2021/07/05 01:05:50;;;;;;;2.72;2.15;;;;;;;14.34;86.07;93457.88;727215;40;20682;-85
2021/07/05 01:06:20;;;;;;;2.92;2.20;;;;;;;14.36;85.98;93464.41;726722;40;20066;-85
2021/07/05 01:06:51;;;;;;;4.97;2.20;;;;;;;14.34;85.80;93452.63;725142;40;20069;-82
2021/07/05 01:07:23;;;;;;;2.50;2.10;;;;;;;14.34;86.10;93460.47;724231;40;20072;-81
2021/07/05 01:07:54;;;;;;;2.45;2.25;;;;;;;14.25;86.21;93449.78;721804;41;20089;-83
2021/07/05 01:08:25;;;;;;;2.50;2.10;;;;;;;14.32;86.13;93466.00;720740;41;20442;-83
2021/07/05 01:08:56;;;;;;;2.65;2.20;;;;;;;14.34;86.44;93469.13;721282;41;20047;-81
2021/07/05 01:09:26;;;;;;;2.88;2.00;;;;;;;14.26;86.06;93461.78;725231;40;20063;-83
2021/07/05 01:09:57;;;;;;;3.80;2.25;;;;;;;14.27;86.44;93467.84;726725;40;20036;-83
2021/07/05 01:10:28;;;;;;;4.53;2.33;;;;;;;14.28;86.41;93464.16;724459;40;20035;-84
2021/07/05 01:10:59;;;;;;;5.05;2.00;;;;;;;14.24;86.63;93462.06;725196;40;20020;-83
2021/07/05 01:11:29;;;;;;;2.90;2.08;;;;;;;14.28;86.67;93464.16;727348;40;20090;-83
2021/07/05 01:12:00;;;;;;;4.38;2.20;;;;;;;14.24;86.78;93466.53;727825;40;20153;-85
2021/07/05 01:12:30;;;;;;;3.00;2.15;;;;;;;14.19;86.72;93471.75;729322;40;20038;-83
2021/07/05 01:13:02;;;;;;;2.85;2.30;;;;;;;14.18;86.52;93473.59;731355;40;20023;-82
2021/07/05 01:13:33;;;;;;;2.42;2.00;;;;;;;14.20;86.39;93468.88;730664;40;20042;-83
2021/07/05 01:14:03;;;;;;;2.10;1.88;;;;;;;14.27;86.46;93473.84;730359;40;20026;-82
2021/07/05 01:14:34;;;;;;;2.83;2.15;;;;;;;14.28;86.25;93464.94;730680;40;20066;-83
2021/07/05 01:15:09;;;;;;;3.55;2.30;;;;;;;14.26;86.33;93467.03;726846;40;20083;-84
2021/07/05 01:15:40;;;;;;;2.78;1.88;;;;;;;14.29;86.38;93466.53;728622;40;20127;-83
2021/07/05 01:16:11;;;;;;;2.53;2.30;;;;;;;14.26;86.76;93467.03;728154;40;20070;-83
2021/07/05 01:16:41;;;;;;;3.55;2.15;;;;;;;14.19;86.77;93458.69;730959;40;20338;-83
2021/07/05 01:17:16;;;;;;;2.47;2.08;;;;;;;14.30;86.21;93473.31;730431;40;20112;-82
2021/07/05 01:17:47;;;;;;;5.95;2.10;;;;;;;14.34;86.51;93479.59;730543;40;20236;-82
2021/07/05 01:18:54;;;;;;;2.67;2.10;;;;;;;14.33;86.52;93472.78;730180;40;20030;-82
2021/07/05 01:19:45;;;;;;;4.95;2.25;;;;;;;14.28;86.03;93475.41;722218;40;20048;-85
2021/07/05 01:20:19;;;;;;;3.85;2.20;;;;;;;14.19;86.01;93459.47;727251;40;20387;-84
2021/07/05 01:20:50;;;;;;;2.55;2.13;;;;;;;14.31;86.25;93467.03;726361;40;20036;-83
2021/07/05 01:21:21;;;;;;;2.72;2.25;;;;;;;14.32;85.89;93458.16;725828;40;20214;-82
2021/07/05 01:21:52;;;;;;;2.70;2.30;;;;;;;14.26;85.90;93459.19;727056;40;20047;-83
2021/07/05 01:22:22;;;;;;;2.20;2.00;;;;;;;14.35;85.89;93469.88;727284;40;20560;-84
2021/07/05 01:22:53;;;;;;;2.45;1.90;;;;;;;14.37;85.68;93463.34;726530;40;20039;-84
2021/07/05 01:23:24;;;;;;;3.80;2.20;;;;;;;14.35;85.63;93462.84;723285;41;20181;-84
2021/07/05 01:23:54;;;;;;;8.25;2.53;;;;;;;14.35;85.93;93473.31;721861;41;21250;-83
2021/07/05 01:24:26;;;;;;;3.10;2.30;;;;;;;14.38;85.92;93470.16;723765;40;20252;-85
2021/07/05 01:24:57;;;;;;;2.60;2.03;;;;;;;14.37;85.76;93465.19;724254;40;20355;-82
2021/07/05 01:25:29;;;;;;;2.85;2.33;;;;;;;14.35;86.03;93464.66;724314;40;20051;-83
2021/07/05 01:26:01;;;;;;;3.65;2.60;;;;;;;14.36;85.94;93471.47;724312;40;20028;-83
2021/07/05 01:26:31;;;;;;;5.10;2.50;;;;;;;14.32;86.01;93465.19;724610;40;20050;-84
2021/07/05 01:27:06;;;;;;;2.78;2.30;;;;;;;14.34;86.08;93468.34;725289;40;20027;-84
2021/07/05 01:27:37;;;;;;;2.72;2.35;;;;;;;14.29;86.28;93461.28;727297;40;20032;-83
2021/07/05 01:28:09;;;;;;;2.38;2.08;;;;;;;14.41;86.19;93471.47;725249;40;20078;-85
2021/07/05 01:28:40;;;;;;;4.32;2.30;;;;;;;14.43;86.11;93462.28;726666;40;20063;-84
2021/07/05 01:29:11;;;;;;;2.80;2.13;;;;;;;14.45;85.89;93465.44;728183;40;20061;-84
2021/07/05 01:29:41;;;;;;;2.40;2.08;;;;;;;14.44;85.89;93471.72;726142;40;20044;-84
2021/07/05 01:30:13;;;;;;;2.97;2.30;;;;;;;14.40;85.74;93465.44;721952;40;20048;-84
2021/07/05 01:30:44;;;;;;;3.67;2.47;;;;;;;14.47;85.69;93471.19;724783;40;20100;-84
2021/07/05 01:31:14;;;;;;;2.58;2.15;;;;;;;14.48;85.75;93466.75;723878;40;20091;-84
2021/07/05 01:31:45;;;;;;;2.90;2.20;;;;;;;14.48;85.95;93464.91;724784;40;20320;-83
2021/07/05 01:32:16;;;;;;;2.45;2.20;;;;;;;14.40;86.35;93462.81;725917;40;20019;-84
2021/07/05 01:32:47;;;;;;;5.38;2.47;;;;;;;14.50;86.15;93467.25;726264;40;20095;-84
2021/07/05 01:33:18;;;;;;;3.13;2.20;;;;;;;14.50;85.93;93471.72;724804;40;20072;-84
2021/07/05 01:33:51;;;;;;;2.53;2.28;;;;;;;14.47;85.63;93476.44;728632;40;20076;-85
2021/07/05 01:34:22;;;;;;;2.67;2.30;;;;;;;14.47;86.17;93470.41;727293;40;20148;-83
2021/07/05 01:34:52;;;;;;;2.75;2.17;;;;;;;14.46;85.80;93474.88;729550;40;20301;-83
2021/07/05 01:35:23;;;;;;;2.13;1.90;;;;;;;14.52;85.84;93472.25;729890;40;20564;-84
2021/07/05 01:35:53;;;;;;;4.43;2.30;;;;;;;14.43;85.97;93464.13;730780;40;20066;-83
2021/07/05 01:36:24;;;;;;;2.72;2.15;;;;;;;14.48;85.74;93470.13;730184;40;20609;-83
2021/07/05 01:36:55;;;;;;;3.30;2.35;;;;;;;14.46;86.12;93474.88;729127;40;20074;-84
2021/07/05 01:37:25;;;;;;;2.95;2.30;;;;;;;14.40;86.19;93454.97;726698;40;20127;-83
2021/07/05 01:37:56;;;;;;;2.60;2.40;;;;;;;14.52;86.02;93480.09;727551;40;20118;-84
2021/07/05 01:38:27;;;;;;;4.05;2.70;;;;;;;14.45;86.06;93478.50;727125;40;20307;-84
2021/07/05 01:38:58;;;;;;;3.97;2.40;;;;;;;14.45;86.24;93482.97;728111;40;20035;-85
2021/07/05 01:39:29;;;;;;;3.25;2.33;;;;;;;14.38;86.55;93478.03;728932;40;20034;-84
2021/07/05 01:40:00;;;;;;;3.08;2.75;;;;;;;14.38;86.89;93483.25;728759;40;20043;-84
2021/07/05 01:40:31;;;;;;;3.28;2.40;;;;;;;14.38;86.98;93480.63;729073;40;21113;-84
2021/07/05 01:41:03;;;;;;;3.35;2.42;;;;;;;14.41;86.73;93489.78;710096;40;20364;-84
2021/07/05 01:41:34;;;;;;;2.83;2.40;;;;;;;14.42;86.72;93488.72;718371;41;20050;-84
2021/07/05 01:42:05;;;;;;;2.92;2.42;;;;;;;14.38;87.25;93480.63;720655;40;20055;-84
2021/07/05 01:42:35;;;;;;;2.63;2.35;;;;;;;14.39;87.28;93484.81;718477;40;20135;-84
2021/07/05 01:43:06;;;;;;;5.32;2.47;;;;;;;14.39;87.35;93486.66;710755;41;20038;-84
2021/07/05 01:43:37;;;;;;;4.35;2.50;;;;;;;14.37;87.37;93484.28;715358;41;20487;-84
2021/07/05 01:44:07;;;;;;;3.72;2.80;;;;;;;14.30;88.10;93483.00;715439;41;20034;-84
2021/07/05 01:44:38;;;;;;;4.18;2.72;;;;;;;14.20;88.55;93481.16;714881;41;20046;-84
2021/07/05 01:45:09;;;;;;;2.90;2.60;;;;;;;14.27;88.36;93488.75;716361;41;20567;-84
2021/07/05 01:45:40;;;;;;;3.38;2.55;;;;;;;14.20;88.51;93481.16;720710;41;20051;-83
2021/07/05 01:46:11;;;;;;;3.20;2.70;;;;;;;14.31;88.35;93492.41;721282;41;20243;-84
2021/07/05 01:46:42;;;;;;;4.03;2.50;;;;;;;14.30;88.33;93491.63;722251;41;20136;-83
2021/07/05 01:47:13;;;;;;;3.33;2.50;;;;;;;14.31;88.26;93485.34;719764;40;20112;-83
2021/07/05 01:47:44;;;;;;;3.00;2.50;;;;;;;14.38;87.88;93490.31;719688;40;20046;-84
2021/07/05 01:48:14;;;;;;;3.72;2.50;;;;;;;14.36;87.80;93487.97;722112;40;20183;-83
2021/07/05 01:48:48;;;;;;;3.10;2.70;;;;;;;14.36;88.11;93492.41;719926;40;20161;-84
2021/07/05 01:49:19;;;;;;;2.60;2.40;;;;;;;14.30;87.55;93493.47;716930;40;20328;-84
2021/07/05 01:49:50;;;;;;;4.68;2.70;;;;;;;14.37;87.22;93493.97;725238;40;20036;-83
2021/07/05 01:50:22;;;;;;;2.60;2.40;;;;;;;14.31;87.38;93490.56;721605;41;20514;-84
2021/07/05 01:50:55;;;;;;;4.35;2.50;;;;;;;14.42;87.54;93496.59;717734;41;20075;-83
2021/07/05 01:51:25;;;;;;;3.13;2.30;;;;;;;14.43;87.44;93503.38;713512;40;20111;-84
2021/07/05 01:51:56;;;;;;;2.85;2.55;;;;;;;14.37;87.38;93502.59;718161;41;20073;-84
2021/07/05 01:52:26;;;;;;;3.33;2.70;;;;;;;14.38;87.61;93495.56;719315;41;20045;-83
2021/07/05 01:52:57;;;;;;;2.63;2.28;;;;;;;14.35;87.50;93502.09;716910;41;20337;-85
2021/07/05 01:53:28;;;;;;;3.25;2.58;;;;;;;14.34;87.59;93503.13;715983;41;20038;-84
2021/07/05 01:53:59;;;;;;;2.60;2.40;;;;;;;14.24;87.96;93495.31;718579;41;20349;-84
2021/07/05 01:54:29;;;;;;;4.32;2.42;;;;;;;14.28;87.80;93501.56;717821;41;20041;-84
2021/07/05 01:55:00;;;;;;;2.60;2.22;;;;;;;14.33;87.69;93498.16;718128;41;20037;-83
2021/07/05 01:55:33;;;;;;;2.90;2.50;;;;;;;14.32;87.63;93501.81;717453;41;20041;-84
2021/07/05 01:56:04;;;;;;;3.67;2.10;;;;;;;14.29;87.92;93502.34;716401;41;20375;-83
2021/07/05 01:56:34;;;;;;;3.00;2.35;;;;;;;14.28;87.78;93504.19;717649;41;20140;-84
2021/07/05 01:57:07;;;;;;;2.97;2.33;;;;;;;14.33;87.68;93498.94;709217;41;20051;-84
2021/07/05 01:57:55;;;;;;;2.83;2.40;;;;;;;14.39;87.86;93503.13;714466;41;20124;-84
2021/07/05 01:58:26;;;;;;;3.50;2.22;;;;;;;14.38;87.71;93504.19;719206;41;20579;-84
2021/07/05 01:58:57;;;;;;;3.13;2.28;;;;;;;14.36;87.32;93487.97;719715;41;20037;-83
2021/07/05 01:59:27;;;;;;;2.75;2.40;;;;;;;14.40;87.21;93493.44;718027;41;20305;-84
2021/07/05 01:59:59;;;;;;;3.08;2.40;;;;;;;14.39;87.09;93497.13;715657;41;20026;-84
2021/07/05 02:00:32;;;;;;;4.03;2.33;;;;;;;14.35;87.10;93494.25;716890;41;20034;-84
2021/07/05 02:01:04;;;;;;;2.70;2.50;;;;;;;14.44;87.15;93497.88;718143;41;20022;-84
2021/07/05 02:01:35;;;;;;;2.85;2.25;;;;;;;14.32;87.55;93494.78;718617;41;20048;-84
2021/07/05 02:02:08;;;;;;;7.18;2.40;;;;;;;14.35;87.74;93502.09;717901;41;20281;-84
2021/07/05 02:02:39;;;;;;;3.80;2.20;;;;;;;14.29;87.57;93487.47;718055;41;20046;-84
2021/07/05 02:03:10;;;;;;;3.28;2.35;;;;;;;14.31;87.50;93503.66;715668;41;20187;-84
2021/07/05 02:03:41;;;;;;;2.63;2.42;;;;;;;14.37;87.80;93504.44;718300;41;20041;-84
2021/07/05 02:04:12;;;;;;;3.08;2.40;;;;;;;14.30;88.04;93502.09;711442;41;20133;-84
2021/07/05 02:04:44;;;;;;;3.03;2.40;;;;;;;14.34;87.88;93502.34;717063;41;20094;-84
2021/07/05 02:05:17;;;;;;;2.75;2.40;;;;;;;14.24;88.13;93492.69;715741;41;20107;-84
2021/07/05 02:05:48;;;;;;;3.30;2.30;;;;;;;14.32;87.88;93493.97;715843;41;20045;-84
2021/07/05 02:06:18;;;;;;;5.35;2.08;;;;;;;14.36;87.97;93493.19;709507;41;20045;-84
2021/07/05 02:06:49;;;;;;;3.00;2.20;;;;;;;14.50;87.95;93503.13;713491;41;20693;-84
2021/07/05 02:07:20;;;;;;;3.45;2.20;;;;;;;14.46;87.77;93487.16;711483;41;20243;-83
2021/07/05 02:07:51;;;;;;;5.93;2.35;;;;;;;14.53;88.27;93492.16;712207;41;20042;-83
2021/07/05 02:08:23;;;;;;;4.78;2.40;;;;;;;14.43;87.62;93496.31;710854;41;20038;-84
2021/07/05 02:08:53;;;;;;;6.57;2.22;;;;;;;14.47;87.80;93502.59;713898;41;20036;-84
2021/07/05 02:09:24;;;;;;;2.30;2.05;;;;;;;14.39;87.86;93497.13;713890;41;20161;-83
2021/07/05 02:09:54;;;;;;;2.75;2.35;;;;;;;14.43;87.73;93492.91;711245;41;20082;-84
2021/07/05 02:10:32;;;;;;;3.38;2.53;;;;;;;14.47;87.67;93489.50;717349;41;20217;-83
2021/07/05 02:11:04;;;;;;;2.60;2.30;;;;;;;14.50;87.74;93498.66;716022;41;20031;-82
2021/07/05 02:11:36;;;;;;;2.92;2.28;;;;;;;14.52;87.73;93501.03;717283;41;20037;-82
2021/07/05 02:12:07;;;;;;;4.35;2.55;;;;;;;14.42;87.72;93489.50;716578;41;20309;-82
2021/07/05 02:12:39;;;;;;;2.75;2.17;;;;;;;14.46;87.88;93502.84;720739;41;20089;-83
2021/07/05 02:13:14;;;;;;;4.97;1.95;;;;;;;14.41;87.88;93497.63;720098;41;20531;-83
2021/07/05 02:13:45;;;;;;;2.70;2.45;;;;;;;14.39;87.78;93502.34;721361;41;20482;-82
2021/07/05 02:14:16;;;;;;;2.95;2.35;;;;;;;14.39;87.74;93505.75;719321;41;20078;-82
2021/07/05 02:14:46;;;;;;;3.58;2.95;;;;;;;14.34;87.64;93503.13;721387;41;20044;-83
2021/07/05 02:15:17;;;;;;;2.67;2.42;;;;;;;14.30;87.94;93496.88;718736;41;20459;-82
2021/07/05 02:15:50;;;;;;;6.60;2.40;;;;;;;14.34;87.75;93510.97;720045;41;20108;-82
2021/07/05 02:16:20;;;;;;;4.85;2.40;;;;;;;14.36;87.72;93503.66;718560;41;20113;-83
2021/07/05 02:16:51;;;;;;;3.38;2.53;;;;;;;14.30;87.84;93503.94;719566;41;20034;-83
2021/07/05 02:17:21;;;;;;;4.55;2.80;;;;;;;14.24;88.15;93505.75;717835;41;20062;-83
2021/07/05 02:17:52;;;;;;;2.88;2.35;;;;;;;14.30;88.60;93511.78;718439;41;20812;-83
2021/07/05 02:18:23;;;;;;;2.92;2.40;;;;;;;14.30;88.28;93509.94;717448;41;20041;-83
2021/07/05 02:18:54;;;;;;;5.47;2.60;;;;;;;14.26;88.45;93501.03;719371;41;21559;-83
2021/07/05 02:19:24;;;;;;;2.95;2.42;;;;;;;14.33;88.55;93511.25;709762;41;20038;-83
2021/07/05 02:19:55;;;;;;;2.75;2.40;;;;;;;14.29;88.57;93507.56;710999;41;20130;-83
2021/07/05 02:20:27;;;;;;;3.40;2.35;;;;;;;14.21;88.51;93501.06;710605;41;20609;-83
2021/07/05 02:21:04;;;;;;;3.67;2.20;;;;;;;14.25;88.77;93495.03;714328;41;20538;-82
2021/07/05 02:21:35;;;;;;;7.05;2.28;;;;;;;14.25;88.76;93499.47;707765;41;20292;-84
2021/07/05 02:22:06;;;;;;;2.95;2.40;;;;;;;14.33;88.80;93508.63;701704;41;20122;-82
2021/07/05 02:22:37;;;;;;;3.72;2.40;;;;;;;14.21;89.06;93499.22;704088;41;20101;-83
2021/07/05 02:23:10;;;;;;;3.22;2.28;;;;;;;14.21;88.91;93506.28;703658;41;20061;-84
2021/07/05 02:23:41;;;;;;;3.03;2.50;;;;;;;14.14;88.90;93492.69;710867;41;20092;-83
2021/07/05 02:24:11;;;;;;;3.95;2.30;;;;;;;14.21;88.70;93496.59;714136;41;20110;-84
2021/07/05 02:24:42;;;;;;;2.53;2.33;;;;;;;14.18;89.06;93496.34;695042;41;20060;-83
2021/07/05 02:25:14;;;;;;;2.97;2.40;;;;;;;14.24;88.92;93505.75;703547;41;20067;-83
2021/07/05 02:25:46;;;;;;;2.88;2.65;;;;;;;14.19;89.11;93500.53;714559;41;20031;-83
2021/07/05 02:26:16;;;;;;;2.20;2.00;;;;;;;14.27;89.23;93499.22;716119;41;20046;-83
2021/07/05 02:26:47;;;;;;;2.97;2.45;;;;;;;14.24;89.26;93480.38;719648;40;20042;-83
2021/07/05 02:27:18;;;;;;;3.35;2.72;;;;;;;14.34;88.80;93505.75;717278;40;20441;-82
2021/07/05 02:27:48;;;;;;;3.42;2.33;;;;;;;14.36;88.71;93503.66;713117;41;20056;-82
2021/07/05 02:28:23;;;;;;;2.78;2.45;;;;;;;14.29;88.80;93499.72;715504;41;20137;-82
2021/07/05 02:28:56;;;;;;;3.55;2.20;;;;;;;14.24;89.17;93493.47;714493;41;20037;-84
2021/07/05 02:29:26;;;;;;;3.65;3.10;;;;;;;14.19;89.40;93488.22;716176;41;20033;-84
2021/07/05 02:29:57;;;;;;;4.03;3.30;;;;;;;14.15;89.31;93496.88;716435;41;20027;-84
2021/07/05 02:30:30;;;;;;;3.10;2.75;;;;;;;14.19;89.48;93497.91;713198;41;20102;-84